sensor_id;sensor_type;location;lat;lon;timestamp;temperature;humidity
69436;SHT31;56625;54.322;18.582;2022-09-09T00:02:17;14.80;60.93
69436;SHT31;56625;54.322;18.582;2022-09-09T00:04:55;14.78;61.11
69436;SHT31;56625;54.322;18.582;2022-09-09T00:07:48;14.75;61.25
69436;SHT31;56625;54.322;18.582;2022-09-09T00:10:30;14.74;61.14
69436;SHT31;56625;54.322;18.582;2022-09-09T00:13:16;14.73;61.26
69436;SHT31;56625;54.322;18.582;2022-09-09T00:18:52;14.69;61.27
69436;SHT31;56625;54.322;18.582;2022-09-09T00:21:52;14.68;61.37
69436;SHT31;56625;54.322;18.582;2022-09-09T00:24:49;14.68;61.33
69436;SHT31;56625;54.322;18.582;2022-09-09T00:27:26;14.67;61.39
69436;SHT31;56625;54.322;18.582;2022-09-09T00:32:53;14.67;61.42
69436;SHT31;56625;54.322;18.582;2022-09-09T00:35:44;14.67;61.34
69436;SHT31;56625;54.322;18.582;2022-09-09T00:38:36;14.67;61.37
69436;SHT31;56625;54.322;18.582;2022-09-09T00:41:15;14.66;61.37
69436;SHT31;56625;54.322;18.582;2022-09-09T00:43:57;14.64;61.39
69436;SHT31;56625;54.322;18.582;2022-09-09T00:56:14;14.58;61.55
69436;SHT31;56625;54.322;18.582;2022-09-09T00:58:54;14.58;61.58
69436;SHT31;56625;54.322;18.582;2022-09-09T01:01:39;14.60;61.59
69436;SHT31;56625;54.322;18.582;2022-09-09T01:04:09;14.62;61.58
69436;SHT31;56625;54.322;18.582;2022-09-09T01:06:49;14.63;61.49
69436;SHT31;56625;54.322;18.582;2022-09-09T01:09:42;14.63;61.39
69436;SHT31;56625;54.322;18.582;2022-09-09T01:15:24;14.64;61.45
69436;SHT31;56625;54.322;18.582;2022-09-09T01:18:10;14.65;61.37
69436;SHT31;56625;54.322;18.582;2022-09-09T01:20:59;14.65;61.42
69436;SHT31;56625;54.322;18.582;2022-09-09T01:26:42;14.63;61.45
69436;SHT31;56625;54.322;18.582;2022-09-09T01:29:14;14.63;61.46
69436;SHT31;56625;54.322;18.582;2022-09-09T01:31:55;14.64;61.43
69436;SHT31;56625;54.322;18.582;2022-09-09T01:34:31;14.65;61.33
69436;SHT31;56625;54.322;18.582;2022-09-09T01:37:07;14.66;61.35
69436;SHT31;56625;54.322;18.582;2022-09-09T01:39:40;14.66;61.33
69436;SHT31;56625;54.322;18.582;2022-09-09T01:42:13;14.67;61.21
69436;SHT31;56625;54.322;18.582;2022-09-09T01:44:43;14.67;61.37
69436;SHT31;56625;54.322;18.582;2022-09-09T01:47:11;14.67;61.39
69436;SHT31;56625;54.322;18.582;2022-09-09T01:49:39;14.65;61.38
69436;SHT31;56625;54.322;18.582;2022-09-09T01:52:07;14.65;61.37
69436;SHT31;56625;54.322;18.582;2022-09-09T01:54:36;14.65;61.37
69436;SHT31;56625;54.322;18.582;2022-09-09T01:57:11;14.65;61.44
69436;SHT31;56625;54.322;18.582;2022-09-09T02:02:44;14.64;61.46
69436;SHT31;56625;54.322;18.582;2022-09-09T02:05:35;14.65;61.49
69436;SHT31;56625;54.322;18.582;2022-09-09T02:08:11;14.64;61.47
69436;SHT31;56625;54.322;18.582;2022-09-09T02:13:43;14.63;61.51
69436;SHT31;56625;54.322;18.582;2022-09-09T02:16:15;14.64;61.52
69436;SHT31;56625;54.322;18.582;2022-09-09T02:18:55;14.64;61.40
69436;SHT31;56625;54.322;18.582;2022-09-09T02:21:32;14.64;61.44
69436;SHT31;56625;54.322;18.582;2022-09-09T02:24:04;14.64;61.52
69436;SHT31;56625;54.322;18.582;2022-09-09T02:26:38;14.63;61.52
69436;SHT31;56625;54.322;18.582;2022-09-09T02:29:16;14.62;61.52
69436;SHT31;56625;54.322;18.582;2022-09-09T02:31:52;14.62;61.40
69436;SHT31;56625;54.322;18.582;2022-09-09T02:34:23;14.62;61.42
69436;SHT31;56625;54.322;18.582;2022-09-09T02:36:55;14.62;61.63
69436;SHT31;56625;54.322;18.582;2022-09-09T02:39:27;14.60;62.02
69436;SHT31;56625;54.322;18.582;2022-09-09T02:41:54;14.57;62.10
69436;SHT31;56625;54.322;18.582;2022-09-09T02:44:23;14.54;62.17
69436;SHT31;56625;54.322;18.582;2022-09-09T02:55:46;14.46;63.15
69436;SHT31;56625;54.322;18.582;2022-09-09T02:58:22;14.44;63.64
69436;SHT31;56625;54.322;18.582;2022-09-09T03:00:50;14.41;63.61
69436;SHT31;56625;54.322;18.582;2022-09-09T03:03:19;14.38;63.63
69436;SHT31;56625;54.322;18.582;2022-09-09T03:05:49;14.37;63.69
69436;SHT31;56625;54.322;18.582;2022-09-09T03:08:17;14.35;63.78
69436;SHT31;56625;54.322;18.582;2022-09-09T03:10:45;14.32;64.25
69436;SHT31;56625;54.322;18.582;2022-09-09T03:13:13;14.29;65.05
69436;SHT31;56625;54.322;18.582;2022-09-09T03:15:42;14.22;66.48
69436;SHT31;56625;54.322;18.582;2022-09-09T03:18:10;14.13;67.99
69436;SHT31;56625;54.322;18.582;2022-09-09T03:20:38;14.03;68.66
69436;SHT31;56625;54.322;18.582;2022-09-09T03:23:06;13.94;69.64
69436;SHT31;56625;54.322;18.582;2022-09-09T03:25:45;13.81;72.54
69436;SHT31;56625;54.322;18.582;2022-09-09T03:28:17;13.60;75.06
69436;SHT31;56625;54.322;18.582;2022-09-09T03:30:46;13.39;77.68
69436;SHT31;56625;54.322;18.582;2022-09-09T03:33:13;13.21;79.10
69436;SHT31;56625;54.322;18.582;2022-09-09T03:35:46;13.07;80.35
69436;SHT31;56625;54.322;18.582;2022-09-09T03:38:18;12.95;81.01
69436;SHT31;56625;54.322;18.582;2022-09-09T03:40:52;12.88;80.88
69436;SHT31;56625;54.322;18.582;2022-09-09T03:43:23;12.84;81.43
69436;SHT31;56625;54.322;18.582;2022-09-09T03:45:52;12.76;81.85
69436;SHT31;56625;54.322;18.582;2022-09-09T03:48:24;12.70;81.68
69436;SHT31;56625;54.322;18.582;2022-09-09T03:50:55;12.65;81.71
69436;SHT31;56625;54.322;18.582;2022-09-09T03:53:28;12.63;81.57
69436;SHT31;56625;54.322;18.582;2022-09-09T03:55:57;12.62;82.37
69436;SHT31;56625;54.322;18.582;2022-09-09T03:58:27;12.58;82.66
69436;SHT31;56625;54.322;18.582;2022-09-09T04:00:57;12.55;83.24
69436;SHT31;56625;54.322;18.582;2022-09-09T04:03:31;12.49;83.73
69436;SHT31;56625;54.322;18.582;2022-09-09T04:06:00;12.47;84.00
69436;SHT31;56625;54.322;18.582;2022-09-09T04:08:30;12.46;83.63
69436;SHT31;56625;54.322;18.582;2022-09-09T04:10:59;12.47;83.42
69436;SHT31;56625;54.322;18.582;2022-09-09T04:13:33;12.46;83.74
69436;SHT31;56625;54.322;18.582;2022-09-09T04:16:03;12.45;83.90
69436;SHT31;56625;54.322;18.582;2022-09-09T04:18:31;12.45;84.12
69436;SHT31;56625;54.322;18.582;2022-09-09T04:20:59;12.42;84.45
69436;SHT31;56625;54.322;18.582;2022-09-09T04:23:28;12.41;84.54
69436;SHT31;56625;54.322;18.582;2022-09-09T04:25:57;12.39;84.79
69436;SHT31;56625;54.322;18.582;2022-09-09T04:28:28;12.40;84.91
69436;SHT31;56625;54.322;18.582;2022-09-09T04:33:56;12.38;85.16
69436;SHT31;56625;54.322;18.582;2022-09-09T04:36:24;12.38;85.44
69436;SHT31;56625;54.322;18.582;2022-09-09T04:38:52;12.37;85.30
69436;SHT31;56625;54.322;18.582;2022-09-09T04:41:20;12.38;85.43
69436;SHT31;56625;54.322;18.582;2022-09-09T04:43:48;12.39;85.36
69436;SHT31;56625;54.322;18.582;2022-09-09T04:46:16;12.39;85.77
69436;SHT31;56625;54.322;18.582;2022-09-09T04:48:44;12.38;85.81
69436;SHT31;56625;54.322;18.582;2022-09-09T04:51:13;12.37;85.61
69436;SHT31;56625;54.322;18.582;2022-09-09T04:53:41;12.39;85.68
69436;SHT31;56625;54.322;18.582;2022-09-09T04:56:10;12.40;85.75
69436;SHT31;56625;54.322;18.582;2022-09-09T04:58:45;12.41;85.80
69436;SHT31;56625;54.322;18.582;2022-09-09T05:01:14;12.41;85.83
69436;SHT31;56625;54.322;18.582;2022-09-09T05:03:46;12.43;85.82
69436;SHT31;56625;54.322;18.582;2022-09-09T05:06:18;12.41;85.84
69436;SHT31;56625;54.322;18.582;2022-09-09T05:08:49;12.39;85.78
69436;SHT31;56625;54.322;18.582;2022-09-09T05:11:18;12.37;85.84
69436;SHT31;56625;54.322;18.582;2022-09-09T05:14:11;12.37;86.00
69436;SHT31;56625;54.322;18.582;2022-09-09T05:16:47;12.35;85.93
69436;SHT31;56625;54.322;18.582;2022-09-09T05:19:17;12.35;85.67
69436;SHT31;56625;54.322;18.582;2022-09-09T05:21:50;12.34;85.64
69436;SHT31;56625;54.322;18.582;2022-09-09T05:24:36;12.35;85.75
69436;SHT31;56625;54.322;18.582;2022-09-09T05:27:15;12.36;85.61
69436;SHT31;56625;54.322;18.582;2022-09-09T05:33:19;12.34;85.65
69436;SHT31;56625;54.322;18.582;2022-09-09T05:35:56;12.35;85.50
69436;SHT31;56625;54.322;18.582;2022-09-09T05:38:46;12.34;85.40
69436;SHT31;56625;54.322;18.582;2022-09-09T05:41:42;12.38;85.45
69436;SHT31;56625;54.322;18.582;2022-09-09T05:44:17;12.40;85.44
69436;SHT31;56625;54.322;18.582;2022-09-09T05:47:26;12.39;85.49
69436;SHT31;56625;54.322;18.582;2022-09-09T05:50:30;12.36;85.42
69436;SHT31;56625;54.322;18.582;2022-09-09T05:53:07;12.34;85.25
69436;SHT31;56625;54.322;18.582;2022-09-09T05:55:49;12.28;85.29
69436;SHT31;56625;54.322;18.582;2022-09-09T05:58:18;12.21;84.99
69436;SHT31;56625;54.322;18.582;2022-09-09T06:00:46;12.14;85.06
69436;SHT31;56625;54.322;18.582;2022-09-09T06:03:17;12.10;84.98
69436;SHT31;56625;54.322;18.582;2022-09-09T06:05:45;12.07;85.19
69436;SHT31;56625;54.322;18.582;2022-09-09T06:08:13;12.08;85.28
69436;SHT31;56625;54.322;18.582;2022-09-09T06:10:41;12.08;85.18
69436;SHT31;56625;54.322;18.582;2022-09-09T06:13:09;12.05;85.32
69436;SHT31;56625;54.322;18.582;2022-09-09T06:15:37;12.00;85.40
69436;SHT31;56625;54.322;18.582;2022-09-09T06:18:05;11.94;85.67
69436;SHT31;56625;54.322;18.582;2022-09-09T06:20:32;11.93;85.82
69436;SHT31;56625;54.322;18.582;2022-09-09T06:23:01;11.94;85.64
69436;SHT31;56625;54.322;18.582;2022-09-09T06:25:31;11.96;85.67
69436;SHT31;56625;54.322;18.582;2022-09-09T06:27:59;11.95;85.67
69436;SHT31;56625;54.322;18.582;2022-09-09T06:30:30;11.94;85.45
69436;SHT31;56625;54.322;18.582;2022-09-09T06:33:17;11.93;85.54
69436;SHT31;56625;54.322;18.582;2022-09-09T06:35:59;11.95;85.68
69436;SHT31;56625;54.322;18.582;2022-09-09T06:38:29;11.97;85.54
69436;SHT31;56625;54.322;18.582;2022-09-09T06:40:58;11.98;85.57
69436;SHT31;56625;54.322;18.582;2022-09-09T06:43:29;11.97;85.55
69436;SHT31;56625;54.322;18.582;2022-09-09T06:46:21;11.97;85.60
69436;SHT31;56625;54.322;18.582;2022-09-09T06:49:34;11.96;85.36
69436;SHT31;56625;54.322;18.582;2022-09-09T06:52:17;11.96;85.37
69436;SHT31;56625;54.322;18.582;2022-09-09T06:54:48;11.95;85.44
69436;SHT31;56625;54.322;18.582;2022-09-09T06:57:17;11.95;85.14
69436;SHT31;56625;54.322;18.582;2022-09-09T07:00:05;11.94;85.08
69436;SHT31;56625;54.322;18.582;2022-09-09T07:02:36;11.92;84.97
69436;SHT31;56625;54.322;18.582;2022-09-09T07:05:06;11.91;84.86
69436;SHT31;56625;54.322;18.582;2022-09-09T07:07:35;11.89;85.04
69436;SHT31;56625;54.322;18.582;2022-09-09T07:10:11;11.91;84.90
69436;SHT31;56625;54.322;18.582;2022-09-09T07:12:50;11.91;84.67
69436;SHT31;56625;54.322;18.582;2022-09-09T07:15:24;11.91;84.74
69436;SHT31;56625;54.322;18.582;2022-09-09T07:17:54;11.87;84.68
69436;SHT31;56625;54.322;18.582;2022-09-09T07:20:21;11.86;84.99
69436;SHT31;56625;54.322;18.582;2022-09-09T07:22:49;11.88;85.04
69436;SHT31;56625;54.322;18.582;2022-09-09T07:25:17;11.88;84.92
69436;SHT31;56625;54.322;18.582;2022-09-09T07:27:49;11.86;84.77
69436;SHT31;56625;54.322;18.582;2022-09-09T07:30:21;11.83;84.97
69436;SHT31;56625;54.322;18.582;2022-09-09T07:32:54;11.82;85.07
69436;SHT31;56625;54.322;18.582;2022-09-09T07:35:26;11.85;85.02
69436;SHT31;56625;54.322;18.582;2022-09-09T07:37:54;11.86;85.18
69436;SHT31;56625;54.322;18.582;2022-09-09T07:40:22;11.84;85.19
69436;SHT31;56625;54.322;18.582;2022-09-09T07:42:51;11.81;85.22
69436;SHT31;56625;54.322;18.582;2022-09-09T07:45:18;11.81;85.29
69436;SHT31;56625;54.322;18.582;2022-09-09T07:47:46;11.84;85.23
69436;SHT31;56625;54.322;18.582;2022-09-09T07:50:16;11.87;85.20
69436;SHT31;56625;54.322;18.582;2022-09-09T07:52:44;11.89;85.09
69436;SHT31;56625;54.322;18.582;2022-09-09T07:55:16;11.89;85.10
69436;SHT31;56625;54.322;18.582;2022-09-09T07:57:44;11.87;85.20
69436;SHT31;56625;54.322;18.582;2022-09-09T08:00:16;11.87;85.22
69436;SHT31;56625;54.322;18.582;2022-09-09T08:02:46;11.90;85.21
69436;SHT31;56625;54.322;18.582;2022-09-09T08:05:14;11.92;85.18
69436;SHT31;56625;54.322;18.582;2022-09-09T08:07:46;11.94;85.02
69436;SHT31;56625;54.322;18.582;2022-09-09T08:10:18;11.91;85.16
69436;SHT31;56625;54.322;18.582;2022-09-09T08:12:50;11.90;85.40
69436;SHT31;56625;54.322;18.582;2022-09-09T08:15:49;11.91;85.37
69436;SHT31;56625;54.322;18.582;2022-09-09T08:18:24;11.93;85.44
69436;SHT31;56625;54.322;18.582;2022-09-09T08:26:09;11.93;85.70
69436;SHT31;56625;54.322;18.582;2022-09-09T08:29:05;11.93;85.74
69436;SHT31;56625;54.322;18.582;2022-09-09T08:31:44;11.95;85.73
69436;SHT31;56625;54.322;18.582;2022-09-09T08:34:26;11.90;85.81
69436;SHT31;56625;54.322;18.582;2022-09-09T08:37:10;11.87;86.10
69436;SHT31;56625;54.322;18.582;2022-09-09T08:39:58;11.90;85.94
69436;SHT31;56625;54.322;18.582;2022-09-09T08:42:51;11.90;85.89
69436;SHT31;56625;54.322;18.582;2022-09-09T08:46:11;11.89;86.03
69436;SHT31;56625;54.322;18.582;2022-09-09T08:49:38;11.89;86.14
69436;SHT31;56625;54.322;18.582;2022-09-09T08:55:58;11.97;86.14
69436;SHT31;56625;54.322;18.582;2022-09-09T08:58:33;12.01;86.26
69436;SHT31;56625;54.322;18.582;2022-09-09T09:13:25;12.10;86.23
69436;SHT31;56625;54.322;18.582;2022-09-09T09:19:28;12.10;86.17
69436;SHT31;56625;54.322;18.582;2022-09-09T09:25:08;12.13;86.35
69436;SHT31;56625;54.322;18.582;2022-09-09T09:27:59;12.15;85.98
69436;SHT31;56625;54.322;18.582;2022-09-09T09:30:44;12.18;86.34
69436;SHT31;56625;54.322;18.582;2022-09-09T09:36:15;12.20;86.24
69436;SHT31;56625;54.322;18.582;2022-09-09T09:39:21;12.20;86.03
69436;SHT31;56625;54.322;18.582;2022-09-09T09:42:32;12.18;86.21
69436;SHT31;56625;54.322;18.582;2022-09-09T09:45:17;12.18;86.18
69436;SHT31;56625;54.322;18.582;2022-09-09T09:48:42;12.25;86.17
69436;SHT31;56625;54.322;18.582;2022-09-09T09:51:36;12.25;86.16
69436;SHT31;56625;54.322;18.582;2022-09-09T09:56:49;12.26;86.22
69436;SHT31;56625;54.322;18.582;2022-09-09T09:59:35;12.25;86.32
69436;SHT31;56625;54.322;18.582;2022-09-09T10:02:22;12.28;86.46
69436;SHT31;56625;54.322;18.582;2022-09-09T10:05:08;12.30;86.27
69436;SHT31;56625;54.322;18.582;2022-09-09T10:08:05;12.39;86.19
69436;SHT31;56625;54.322;18.582;2022-09-09T10:13:54;12.49;85.87
69436;SHT31;56625;54.322;18.582;2022-09-09T10:28:18;12.74;85.55
69436;SHT31;56625;54.322;18.582;2022-09-09T10:32:20;12.87;85.41
69436;SHT31;56625;54.322;18.582;2022-09-09T10:34:55;12.88;85.13
69436;SHT31;56625;54.322;18.582;2022-09-09T10:43:10;12.89;85.18
69436;SHT31;56625;54.322;18.582;2022-09-09T10:52:31;12.92;85.53
69436;SHT31;56625;54.322;18.582;2022-09-09T10:55:16;13.01;85.65
69436;SHT31;56625;54.322;18.582;2022-09-09T10:57:52;13.10;85.42
69436;SHT31;56625;54.322;18.582;2022-09-09T11:00:47;13.20;85.12
69436;SHT31;56625;54.322;18.582;2022-09-09T11:03:25;13.26;84.88
69436;SHT31;56625;54.322;18.582;2022-09-09T11:06:01;13.26;84.92
69436;SHT31;56625;54.322;18.582;2022-09-09T11:09:00;13.25;84.92
69436;SHT31;56625;54.322;18.582;2022-09-09T11:11:36;13.28;85.05
69436;SHT31;56625;54.322;18.582;2022-09-09T11:14:22;13.30;85.05
69436;SHT31;56625;54.322;18.582;2022-09-09T11:17:05;13.27;85.13
69436;SHT31;56625;54.322;18.582;2022-09-09T11:19:40;13.27;85.44
69436;SHT31;56625;54.322;18.582;2022-09-09T11:22:19;13.26;85.33
69436;SHT31;56625;54.322;18.582;2022-09-09T11:28:10;13.37;84.84
69436;SHT31;56625;54.322;18.582;2022-09-09T11:31:22;13.36;84.89
69436;SHT31;56625;54.322;18.582;2022-09-09T11:34:20;13.35;84.92
69436;SHT31;56625;54.322;18.582;2022-09-09T11:37:35;13.36;85.01
69436;SHT31;56625;54.322;18.582;2022-09-09T11:40:24;13.32;85.02
69436;SHT31;56625;54.322;18.582;2022-09-09T11:43:05;13.30;85.14
69436;SHT31;56625;54.322;18.582;2022-09-09T11:45:53;13.33;85.33
69436;SHT31;56625;54.322;18.582;2022-09-09T11:48:29;13.33;84.99
69436;SHT31;56625;54.322;18.582;2022-09-09T11:51:06;13.29;85.21
69436;SHT31;56625;54.322;18.582;2022-09-09T11:53:56;13.31;85.39
69436;SHT31;56625;54.322;18.582;2022-09-09T11:59:25;13.30;85.44
69436;SHT31;56625;54.322;18.582;2022-09-09T12:02:11;13.32;85.36
69436;SHT31;56625;54.322;18.582;2022-09-09T12:04:55;13.37;85.07
69436;SHT31;56625;54.322;18.582;2022-09-09T12:07:37;13.35;85.02
69436;SHT31;56625;54.322;18.582;2022-09-09T12:10:27;13.36;85.14
69436;SHT31;56625;54.322;18.582;2022-09-09T12:13:16;13.33;85.07
69436;SHT31;56625;54.322;18.582;2022-09-09T12:15:55;13.35;85.31
69436;SHT31;56625;54.322;18.582;2022-09-09T12:18:33;13.36;85.33
69436;SHT31;56625;54.322;18.582;2022-09-09T12:24:17;13.33;85.74
69436;SHT31;56625;54.322;18.582;2022-09-09T12:27:18;13.30;85.65
69436;SHT31;56625;54.322;18.582;2022-09-09T12:30:10;13.27;85.92
69436;SHT31;56625;54.322;18.582;2022-09-09T12:32:44;13.26;85.98
69436;SHT31;56625;54.322;18.582;2022-09-09T12:35:17;13.29;86.09
69436;SHT31;56625;54.322;18.582;2022-09-09T12:38:01;13.29;86.18
69436;SHT31;56625;54.322;18.582;2022-09-09T12:40:37;13.27;86.21
69436;SHT31;56625;54.322;18.582;2022-09-09T12:43:19;13.26;86.17
69436;SHT31;56625;54.322;18.582;2022-09-09T12:45:51;13.27;86.21
69436;SHT31;56625;54.322;18.582;2022-09-09T12:48:36;13.23;86.13
69436;SHT31;56625;54.322;18.582;2022-09-09T12:51:17;13.23;86.32
69436;SHT31;56625;54.322;18.582;2022-09-09T12:53:56;13.24;86.40
69436;SHT31;56625;54.322;18.582;2022-09-09T12:56:30;13.20;86.61
69436;SHT31;56625;54.322;18.582;2022-09-09T12:59:00;13.18;86.79
69436;SHT31;56625;54.322;18.582;2022-09-09T13:01:29;13.19;86.75
69436;SHT31;56625;54.322;18.582;2022-09-09T13:04:15;13.25;86.87
69436;SHT31;56625;54.322;18.582;2022-09-09T13:06:53;13.28;86.81
69436;SHT31;56625;54.322;18.582;2022-09-09T13:09:35;13.29;86.87
69436;SHT31;56625;54.322;18.582;2022-09-09T13:12:04;13.33;86.88
69436;SHT31;56625;54.322;18.582;2022-09-09T13:14:56;13.28;86.99
69436;SHT31;56625;54.322;18.582;2022-09-09T13:18:01;13.27;87.07
69436;SHT31;56625;54.322;18.582;2022-09-09T13:20:51;13.26;87.18
69436;SHT31;56625;54.322;18.582;2022-09-09T13:23:31;13.25;87.21
69436;SHT31;56625;54.322;18.582;2022-09-09T13:26:25;13.26;87.33
69436;SHT31;56625;54.322;18.582;2022-09-09T13:29:16;13.28;87.43
69436;SHT31;56625;54.322;18.582;2022-09-09T13:32:18;13.24;87.28
69436;SHT31;56625;54.322;18.582;2022-09-09T13:35:47;13.27;87.34
69436;SHT31;56625;54.322;18.582;2022-09-09T13:40:24;13.33;87.13
69436;SHT31;56625;54.322;18.582;2022-09-09T13:43:14;13.32;87.00
69436;SHT31;56625;54.322;18.582;2022-09-09T13:46:25;13.27;86.81
69436;SHT31;56625;54.322;18.582;2022-09-09T13:51:43;13.29;87.11
69436;SHT31;56625;54.322;18.582;2022-09-09T14:01:41;13.27;87.01
69436;SHT31;56625;54.322;18.582;2022-09-09T14:04:14;13.28;87.12
69436;SHT31;56625;54.322;18.582;2022-09-09T14:06:49;13.26;87.59
69436;SHT31;56625;54.322;18.582;2022-09-09T14:09:30;13.26;87.66
69436;SHT31;56625;54.322;18.582;2022-09-09T14:12:19;13.27;87.72
69436;SHT31;56625;54.322;18.582;2022-09-09T14:15:02;13.32;87.72
69436;SHT31;56625;54.322;18.582;2022-09-09T14:18:23;13.36;87.66
69436;SHT31;56625;54.322;18.582;2022-09-09T14:21:05;13.35;87.74
69436;SHT31;56625;54.322;18.582;2022-09-09T14:23:43;13.31;87.65
69436;SHT31;56625;54.322;18.582;2022-09-09T14:26:17;13.30;87.70
69436;SHT31;56625;54.322;18.582;2022-09-09T14:28:47;13.28;88.05
69436;SHT31;56625;54.322;18.582;2022-09-09T14:31:36;13.27;88.04
69436;SHT31;56625;54.322;18.582;2022-09-09T14:34:14;13.30;88.03
69436;SHT31;56625;54.322;18.582;2022-09-09T14:36:58;13.31;87.97
69436;SHT31;56625;54.322;18.582;2022-09-09T14:39:33;13.36;88.07
69436;SHT31;56625;54.322;18.582;2022-09-09T14:42:03;13.37;87.86
69436;SHT31;56625;54.322;18.582;2022-09-09T14:44:36;13.37;87.85
69436;SHT31;56625;54.322;18.582;2022-09-09T14:47:17;13.40;87.72
69436;SHT31;56625;54.322;18.582;2022-09-09T14:49:48;13.43;87.70
69436;SHT31;56625;54.322;18.582;2022-09-09T14:52:33;13.40;87.74
69436;SHT31;56625;54.322;18.582;2022-09-09T14:55:05;13.37;87.87
69436;SHT31;56625;54.322;18.582;2022-09-09T14:57:36;13.36;87.93
69436;SHT31;56625;54.322;18.582;2022-09-09T15:00:06;13.38;88.10
69436;SHT31;56625;54.322;18.582;2022-09-09T15:02:56;13.40;88.09
69436;SHT31;56625;54.322;18.582;2022-09-09T15:05:46;13.42;88.10
69436;SHT31;56625;54.322;18.582;2022-09-09T15:08:21;13.41;87.79
69436;SHT31;56625;54.322;18.582;2022-09-09T15:11:11;13.39;87.90
69436;SHT31;56625;54.322;18.582;2022-09-09T15:13:42;13.44;87.89
69436;SHT31;56625;54.322;18.582;2022-09-09T15:16:30;13.44;87.77
69436;SHT31;56625;54.322;18.582;2022-09-09T15:19:08;13.43;87.95
69436;SHT31;56625;54.322;18.582;2022-09-09T15:21:37;13.44;87.84
69436;SHT31;56625;54.322;18.582;2022-09-09T15:24:06;13.41;88.01
69436;SHT31;56625;54.322;18.582;2022-09-09T15:26:55;13.38;88.28
69436;SHT31;56625;54.322;18.582;2022-09-09T15:30:05;13.35;88.44
69436;SHT31;56625;54.322;18.582;2022-09-09T15:32:48;13.35;88.68
69436;SHT31;56625;54.322;18.582;2022-09-09T15:35:24;13.32;88.99
69436;SHT31;56625;54.322;18.582;2022-09-09T15:38:02;13.30;88.95
69436;SHT31;56625;54.322;18.582;2022-09-09T15:40:32;13.32;88.99
69436;SHT31;56625;54.322;18.582;2022-09-09T15:43:00;13.33;89.08
69436;SHT31;56625;54.322;18.582;2022-09-09T15:45:29;13.30;89.19
69436;SHT31;56625;54.322;18.582;2022-09-09T15:48:15;13.27;89.33
69436;SHT31;56625;54.322;18.582;2022-09-09T15:51:05;13.32;89.25
69436;SHT31;56625;54.322;18.582;2022-09-09T15:54:05;13.37;89.17
69436;SHT31;56625;54.322;18.582;2022-09-09T15:57:14;13.39;89.19
69436;SHT31;56625;54.322;18.582;2022-09-09T16:00:03;13.41;89.09
69436;SHT31;56625;54.322;18.582;2022-09-09T16:03:05;13.45;88.98
69436;SHT31;56625;54.322;18.582;2022-09-09T16:05:36;13.49;88.92
69436;SHT31;56625;54.322;18.582;2022-09-09T16:08:08;13.52;88.85
69436;SHT31;56625;54.322;18.582;2022-09-09T16:10:38;13.53;88.90
69436;SHT31;56625;54.322;18.582;2022-09-09T16:13:24;13.56;88.99
69436;SHT31;56625;54.322;18.582;2022-09-09T16:16:01;13.55;88.93
69436;SHT31;56625;54.322;18.582;2022-09-09T16:18:49;13.56;88.90
69436;SHT31;56625;54.322;18.582;2022-09-09T16:21:21;13.56;88.88
69436;SHT31;56625;54.322;18.582;2022-09-09T16:24:28;13.63;88.90
69436;SHT31;56625;54.322;18.582;2022-09-09T16:27:20;13.61;88.65
69436;SHT31;56625;54.322;18.582;2022-09-09T16:34:39;13.61;88.79
69436;SHT31;56625;54.322;18.582;2022-09-09T16:37:19;13.59;88.69
69436;SHT31;56625;54.322;18.582;2022-09-09T16:39:50;13.60;88.77
69436;SHT31;56625;54.322;18.582;2022-09-09T16:43:07;13.59;88.79
69436;SHT31;56625;54.322;18.582;2022-09-09T16:45:59;13.60;88.84
69436;SHT31;56625;54.322;18.582;2022-09-09T16:49:08;13.67;88.86
69436;SHT31;56625;54.322;18.582;2022-09-09T16:51:53;13.66;88.49
69436;SHT31;56625;54.322;18.582;2022-09-09T16:54:37;13.65;88.58
69436;SHT31;56625;54.322;18.582;2022-09-09T17:01:10;13.61;88.68
69436;SHT31;56625;54.322;18.582;2022-09-09T17:05:01;13.65;88.72
69436;SHT31;56625;54.322;18.582;2022-09-09T17:07:57;13.62;88.58
69436;SHT31;56625;54.322;18.582;2022-09-09T17:10:28;13.62;88.58
69436;SHT31;56625;54.322;18.582;2022-09-09T17:12:58;13.61;88.60
69436;SHT31;56625;54.322;18.582;2022-09-09T17:15:28;13.60;88.64
69436;SHT31;56625;54.322;18.582;2022-09-09T17:18:05;13.59;88.72
69436;SHT31;56625;54.322;18.582;2022-09-09T17:20:35;13.63;88.79
69436;SHT31;56625;54.322;18.582;2022-09-09T17:23:14;13.67;88.71
69436;SHT31;56625;54.322;18.582;2022-09-09T17:26:06;13.72;88.70
69436;SHT31;56625;54.322;18.582;2022-09-09T17:28:57;13.75;88.45
69436;SHT31;56625;54.322;18.582;2022-09-09T17:31:35;13.71;88.51
69436;SHT31;56625;54.322;18.582;2022-09-09T17:34:19;13.69;88.50
69436;SHT31;56625;54.322;18.582;2022-09-09T17:37:02;13.66;88.66
69436;SHT31;56625;54.322;18.582;2022-09-09T17:39:40;13.65;88.77
69436;SHT31;56625;54.322;18.582;2022-09-09T17:42:39;13.64;88.87
69436;SHT31;56625;54.322;18.582;2022-09-09T17:45:14;13.63;88.98
69436;SHT31;56625;54.322;18.582;2022-09-09T17:47:47;13.62;89.05
69436;SHT31;56625;54.322;18.582;2022-09-09T17:50:24;13.62;89.17
69436;SHT31;56625;54.322;18.582;2022-09-09T17:53:07;13.63;89.12
69436;SHT31;56625;54.322;18.582;2022-09-09T17:55:40;13.65;89.19
69436;SHT31;56625;54.322;18.582;2022-09-09T17:58:22;13.65;89.21
69436;SHT31;56625;54.322;18.582;2022-09-09T18:00:54;13.65;89.21
69436;SHT31;56625;54.322;18.582;2022-09-09T18:04:16;13.67;89.24
69436;SHT31;56625;54.322;18.582;2022-09-09T18:06:51;13.67;89.38
69436;SHT31;56625;54.322;18.582;2022-09-09T18:09:23;13.70;89.37
69436;SHT31;56625;54.322;18.582;2022-09-09T18:11:56;13.71;89.44
69436;SHT31;56625;54.322;18.582;2022-09-09T18:14:35;13.71;89.49
69436;SHT31;56625;54.322;18.582;2022-09-09T18:17:54;13.76;89.48
69436;SHT31;56625;54.322;18.582;2022-09-09T18:20:36;13.81;89.37
69436;SHT31;56625;54.322;18.582;2022-09-09T18:23:25;13.79;89.36
69436;SHT31;56625;54.322;18.582;2022-09-09T18:26:09;13.79;89.39
69436;SHT31;56625;54.322;18.582;2022-09-09T18:29:03;13.82;89.36
69436;SHT31;56625;54.322;18.582;2022-09-09T18:32:02;13.82;89.38
69436;SHT31;56625;54.322;18.582;2022-09-09T18:35:41;13.85;89.28
69436;SHT31;56625;54.322;18.582;2022-09-09T18:38:38;13.89;89.20
69436;SHT31;56625;54.322;18.582;2022-09-09T18:41:30;13.88;89.20
69436;SHT31;56625;54.322;18.582;2022-09-09T18:44:21;13.89;89.19
69436;SHT31;56625;54.322;18.582;2022-09-09T18:47:11;13.91;89.23
69436;SHT31;56625;54.322;18.582;2022-09-09T18:49:51;13.90;89.29